Terminal Aerodrome Forecast
Issued by NWS

Home | Current Version | Previous Version | Text Only | Print | Product List | Glossary On
Versions: 1 2 3 4 5 6 7 8 9 10 11 12 13 14 15 16
413
FTUS43 KEAX 182326
TAFSTJ
TAF
KSTJ 182326Z 1900/1924 18015G25KT P6SM BKN035
     FM190300 19015KT P6SM OVC025 WS020/20045KT
     FM190900 20012KT 6SM -DZ BR OVC015 WS020/21045KT
     FM191500 28009KT 5SM BR VCSH OVC012=

USA.gov is the U.S. government's official web portal to all federal, state and local government web resources and services.